createdAt,value
2019-05-19T00:01:36.354Z,27.47
2019-05-19T00:04:41.460Z,28.77
2019-05-19T00:07:46.446Z,28.70
2019-05-19T00:10:51.242Z,31.70
2019-05-19T00:13:56.469Z,27.70
2019-05-19T00:17:01.447Z,29.10
2019-05-19T00:20:06.615Z,28.33
2019-05-19T00:23:11.599Z,29.17
2019-05-19T00:26:16.846Z,28.87
2019-05-19T00:29:21.790Z,30.07
2019-05-19T00:32:26.755Z,30.87
2019-05-19T00:35:31.696Z,29.47
2019-05-19T00:38:36.811Z,27.63
2019-05-19T00:41:41.850Z,28.87
2019-05-19T00:44:46.917Z,28.90
2019-05-19T00:47:51.829Z,27.40
2019-05-19T00:50:57.971Z,27.17
2019-05-19T00:54:03.026Z,27.23
2019-05-19T00:57:08.480Z,28.50
2019-05-19T01:00:13.790Z,27.93
2019-05-19T01:03:18.733Z,29.67
2019-05-19T01:06:23.859Z,27.80
2019-05-19T01:09:28.762Z,29.07
2019-05-19T01:12:33.768Z,28.40
2019-05-19T01:15:38.730Z,28.73
2019-05-19T01:18:43.913Z,28.13
2019-05-19T01:21:49.513Z,28.30
2019-05-19T01:24:54.542Z,28.03
2019-05-19T01:27:59.696Z,28.70
2019-05-19T01:31:04.614Z,27.47
2019-05-19T01:34:09.764Z,28.60
2019-05-19T01:37:14.683Z,25.50
2019-05-19T01:40:19.767Z,28.67
2019-05-19T01:43:24.707Z,28.00
2019-05-19T01:46:29.776Z,27.00
2019-05-19T01:49:34.803Z,28.10
2019-05-19T01:52:39.750Z,26.93
2019-05-19T01:55:44.722Z,26.97
2019-05-19T01:58:49.961Z,27.13
2019-05-19T02:01:54.990Z,28.87
2019-05-19T02:04:59.721Z,28.67
2019-05-19T02:08:04.857Z,29.67
2019-05-19T02:11:10.144Z,30.23
2019-05-19T02:14:15.150Z,29.80
2019-05-19T02:17:22.542Z,29.07
2019-05-19T02:20:33.397Z,28.53
2019-05-19T02:23:34.157Z,29.57
2019-05-19T02:26:39.199Z,29.03
2019-05-19T02:29:44.448Z,27.70
2019-05-19T02:32:49.411Z,28.13
2019-05-19T02:35:54.523Z,26.60
2019-05-19T02:38:59.478Z,28.00
2019-05-19T02:42:05.474Z,30.37
2019-05-19T02:45:11.985Z,27.87
2019-05-19T02:48:18.382Z,25.97
2019-05-19T02:51:25.044Z,26.90
2019-05-19T02:54:30.543Z,27.00
2019-05-19T02:57:36.851Z,27.23
2019-05-19T03:00:42.986Z,28.17
2019-05-19T03:03:47.869Z,27.03
2019-05-19T03:06:52.950Z,27.43
2019-05-19T03:09:58.061Z,26.83
2019-05-19T03:13:02.991Z,25.40
2019-05-19T03:16:07.907Z,27.77
2019-05-19T03:19:12.955Z,27.23
2019-05-19T03:22:18.219Z,27.70
2019-05-19T03:25:23.136Z,24.03
2019-05-19T03:28:28.046Z,26.33
2019-05-19T03:31:51.604Z,24.20
2019-05-19T03:34:56.563Z,25.57
2019-05-19T03:38:01.643Z,25.20
2019-05-19T03:41:06.882Z,25.73
2019-05-19T03:44:11.806Z,25.70
2019-05-19T03:47:16.700Z,25.40
2019-05-19T03:50:21.577Z,24.20
2019-05-19T03:53:26.575Z,26.90
2019-05-19T03:56:31.667Z,24.87
2019-05-19T03:59:36.620Z,26.33
2019-05-19T04:02:41.637Z,26.57
2019-05-19T04:05:46.907Z,25.87
2019-05-19T04:08:52.373Z,24.27
2019-05-19T04:11:57.504Z,25.03
2019-05-19T04:15:02.811Z,25.37
2019-05-19T04:18:07.780Z,23.80
2019-05-19T04:21:12.880Z,25.70
2019-05-19T04:24:17.854Z,26.00
2019-05-19T04:27:22.681Z,26.57
2019-05-19T04:30:27.635Z,24.70
2019-05-19T04:33:32.640Z,25.73
2019-05-19T04:36:37.793Z,23.23
2019-05-19T04:39:42.728Z,22.17
2019-05-19T04:42:47.587Z,22.33
2019-05-19T04:45:52.495Z,21.83
2019-05-19T04:48:57.549Z,20.80
2019-05-19T04:52:06.761Z,22.57
2019-05-19T04:55:09.318Z,21.43
2019-05-19T04:58:14.401Z,21.50
2019-05-19T05:01:19.537Z,23.10
2019-05-19T05:04:29.049Z,21.30
2019-05-19T05:07:31.169Z,22.03
2019-05-19T05:10:36.188Z,21.30
2019-05-19T05:13:41.327Z,22.67
2019-05-19T05:16:46.372Z,23.13
2019-05-19T05:19:51.626Z,23.07
2019-05-19T05:22:56.529Z,22.33
2019-05-19T05:26:01.443Z,21.90
2019-05-19T05:29:06.429Z,22.47
2019-05-19T05:32:11.574Z,23.10
2019-05-19T05:35:16.512Z,22.10
2019-05-19T05:38:21.430Z,21.07
2019-05-19T05:41:26.372Z,21.33
2019-05-19T05:44:31.513Z,20.93
2019-05-19T05:47:36.470Z,21.37
2019-05-19T05:50:41.576Z,21.30
2019-05-19T05:53:46.562Z,22.00
2019-05-19T05:56:51.408Z,20.83
2019-05-19T05:59:56.348Z,22.10
2019-05-19T06:03:01.564Z,21.80
2019-05-19T06:06:06.532Z,21.40
2019-05-19T06:09:11.641Z,22.63
2019-05-19T06:12:16.471Z,20.40
2019-05-19T06:15:21.503Z,21.20
2019-05-19T06:18:26.452Z,20.90
2019-05-19T06:21:31.404Z,21.43
2019-05-19T06:24:36.547Z,21.50
2019-05-19T06:27:41.633Z,20.50
2019-05-19T06:30:46.640Z,20.47
2019-05-19T06:33:51.726Z,20.90
2019-05-19T06:36:56.681Z,22.03
2019-05-19T06:40:01.768Z,22.60
2019-05-19T06:43:06.980Z,22.37
2019-05-19T06:46:12.020Z,20.97
2019-05-19T06:49:17.246Z,22.50
2019-05-19T06:52:22.182Z,22.80
2019-05-19T06:55:27.204Z,21.57
2019-05-19T06:58:32.257Z,23.50
2019-05-19T07:01:37.210Z,24.60
2019-05-19T07:04:42.581Z,27.27
2019-05-19T07:07:47.885Z,27.70
2019-05-19T07:10:53.023Z,26.97
2019-05-19T07:14:18.221Z,29.90
2019-05-19T07:17:23.357Z,25.83
2019-05-19T07:20:28.264Z,30.33
2019-05-19T07:23:33.137Z,30.20
2019-05-19T07:26:46.243Z,30.57
2019-05-19T07:29:51.139Z,28.57
2019-05-19T07:32:56.222Z,28.23
2019-05-19T07:36:01.216Z,28.83
2019-05-19T07:39:07.346Z,28.90
2019-05-19T07:42:12.386Z,30.40
2019-05-19T07:45:17.847Z,29.80
2019-05-19T07:48:22.905Z,31.07
2019-05-19T07:51:28.042Z,26.00
2019-05-19T07:54:33.004Z,28.00
2019-05-19T07:57:38.117Z,26.23
2019-05-19T08:00:43.311Z,27.13
2019-05-19T08:03:48.596Z,26.77
2019-05-19T08:06:53.617Z,26.37
2019-05-19T08:09:58.614Z,28.70
2019-05-19T08:13:03.741Z,26.50
2019-05-19T08:16:08.677Z,25.10
2019-05-19T08:19:13.910Z,26.47
2019-05-19T08:22:18.992Z,26.03
2019-05-19T08:25:24.114Z,25.20
2019-05-19T08:28:29.105Z,24.30
2019-05-19T08:31:34.472Z,25.73
2019-05-19T08:34:41.562Z,25.00
2019-05-19T08:37:46.570Z,25.30
2019-05-19T08:40:51.778Z,24.43
2019-05-19T08:43:56.862Z,23.97
2019-05-19T08:47:01.938Z,23.40
2019-05-19T08:50:07.052Z,23.00
2019-05-19T08:53:12.064Z,22.60
2019-05-19T08:56:17.260Z,22.73
2019-05-19T08:59:22.489Z,24.37
2019-05-19T09:02:27.797Z,24.40
2019-05-19T09:05:32.796Z,24.50
2019-05-19T09:08:37.716Z,23.20
2019-05-19T09:12:01.496Z,21.63
2019-05-19T09:15:07.193Z,21.83
2019-05-19T09:18:12.212Z,20.40
2019-05-19T09:21:17.265Z,19.50
2019-05-19T09:24:29.961Z,16.97
2019-05-19T09:27:29.231Z,18.80
2019-05-19T09:30:34.213Z,18.10
2019-05-19T09:33:39.278Z,19.67
2019-05-19T09:36:44.361Z,18.43
2019-05-19T09:39:49.445Z,17.10
2019-05-19T09:42:54.536Z,16.47
2019-05-19T09:45:59.721Z,16.17
2019-05-19T09:49:32.846Z,14.80
2019-05-19T09:52:38.167Z,16.80
2019-05-19T09:55:43.243Z,16.70
2019-05-19T09:58:48.313Z,16.23
2019-05-19T10:01:53.480Z,17.10
2019-05-19T10:04:58.518Z,17.33
2019-05-19T10:08:03.577Z,17.40
2019-05-19T10:11:19.199Z,16.90
2019-05-19T10:14:24.422Z,16.70
2019-05-19T10:17:29.700Z,16.87
2019-05-19T10:20:34.793Z,17.60
2019-05-19T10:23:40.058Z,17.13
2019-05-19T10:26:45.050Z,17.70
2019-05-19T10:29:50.074Z,18.00
2019-05-19T10:32:58.170Z,17.10
2019-05-19T10:36:01.866Z,16.77
2019-05-19T10:39:07.644Z,16.43
2019-05-19T10:42:12.581Z,14.67
2019-05-19T10:45:17.749Z,16.90
2019-05-19T10:48:22.612Z,16.60
2019-05-19T10:51:27.757Z,15.93
2019-05-19T10:54:32.961Z,16.70
2019-05-19T10:57:37.895Z,15.50
2019-05-19T11:00:47.643Z,21.30
2019-05-19T11:03:52.668Z,15.80
2019-05-19T11:07:09.041Z,16.00
2019-05-19T11:10:14.401Z,16.03
2019-05-19T11:13:19.367Z,14.87
2019-05-19T11:16:24.534Z,13.80
2019-05-19T11:19:29.730Z,15.80
2019-05-19T11:22:34.780Z,16.40
2019-05-19T11:25:51.091Z,14.20
2019-05-19T11:28:46.328Z,14.87
2019-05-19T11:31:51.412Z,14.30
2019-05-19T11:34:56.368Z,14.67
2019-05-19T11:38:01.264Z,14.53
2019-05-19T11:41:06.454Z,15.80
2019-05-19T11:44:11.501Z,14.50
2019-05-19T11:47:16.593Z,13.80
2019-05-19T11:50:21.665Z,13.70
2019-05-19T11:53:26.771Z,13.00
2019-05-19T11:56:31.646Z,12.77
2019-05-19T11:59:36.726Z,13.30
2019-05-19T12:02:42.000Z,13.00
2019-05-19T12:05:47.217Z,12.20
2019-05-19T12:08:52.116Z,11.83
2019-05-19T12:11:57.123Z,12.53
2019-05-19T12:15:02.385Z,12.43
2019-05-19T12:18:07.293Z,12.00
2019-05-19T12:21:12.445Z,11.90
2019-05-19T12:24:17.465Z,12.83
2019-05-19T12:27:23.186Z,12.90
2019-05-19T12:30:28.340Z,13.37
2019-05-19T12:33:33.912Z,13.10
2019-05-19T12:36:39.242Z,14.10
2019-05-19T12:39:44.226Z,13.17
2019-05-19T12:42:49.336Z,13.87
2019-05-19T12:45:54.439Z,14.10
2019-05-19T12:48:59.506Z,14.07
2019-05-19T12:52:04.902Z,13.27
2019-05-19T12:55:10.708Z,13.30
2019-05-19T12:58:15.617Z,12.20
2019-05-19T13:01:20.724Z,13.17
2019-05-19T13:04:25.890Z,13.80
2019-05-19T13:07:30.875Z,14.77
2019-05-19T13:10:35.940Z,15.30
2019-05-19T13:13:40.966Z,14.40
2019-05-19T13:16:45.995Z,16.63
2019-05-19T13:19:50.968Z,15.70
2019-05-19T13:22:55.952Z,19.03
2019-05-19T13:26:01.290Z,16.90
2019-05-19T13:29:06.232Z,18.37
2019-05-19T13:32:11.192Z,17.53
2019-05-19T13:35:16.302Z,15.47
2019-05-19T13:38:21.435Z,15.03
2019-05-19T13:41:26.386Z,11.97
2019-05-19T13:44:31.388Z,9.20
2019-05-19T13:47:36.650Z,10.70
2019-05-19T13:50:41.591Z,10.20
2019-05-19T13:53:46.714Z,12.73
2019-05-19T13:56:51.802Z,15.20
2019-05-19T13:59:56.797Z,14.80
2019-05-19T14:03:01.967Z,14.57
2019-05-19T14:06:06.998Z,13.43
2019-05-19T14:09:15.139Z,11.90
2019-05-19T14:12:18.744Z,12.13
2019-05-19T14:15:23.658Z,10.90
2019-05-19T14:18:28.602Z,9.80
2019-05-19T14:21:33.559Z,9.27
2019-05-19T14:24:38.550Z,10.07
2019-05-19T14:27:44.497Z,10.87
2019-05-19T14:30:49.458Z,11.03
2019-05-19T14:33:55.229Z,9.77
2019-05-19T14:37:00.761Z,8.63
2019-05-19T14:40:07.622Z,9.27
2019-05-19T14:43:13.060Z,10.13
2019-05-19T14:46:18.050Z,9.70
2019-05-19T14:49:23.354Z,9.60
2019-05-19T14:52:28.370Z,8.63
2019-05-19T14:55:33.436Z,9.40
2019-05-19T14:58:41.987Z,9.20
2019-05-19T15:01:49.128Z,9.73
2019-05-19T15:04:55.037Z,9.03
2019-05-19T15:07:59.975Z,10.63
2019-05-19T15:11:05.022Z,10.03
2019-05-19T15:14:09.942Z,10.40
2019-05-19T15:17:16.324Z,11.40
2019-05-19T15:20:30.868Z,10.33
2019-05-19T15:23:36.914Z,10.60
2019-05-19T15:26:43.055Z,9.40
2019-05-19T15:29:49.717Z,10.70
2019-05-19T15:32:54.896Z,11.60
2019-05-19T15:36:00.580Z,12.00
2019-05-19T15:39:07.223Z,9.87
2019-05-19T15:42:12.357Z,10.60
2019-05-19T15:45:17.967Z,10.30
2019-05-19T15:48:23.287Z,10.13
2019-05-19T15:51:34.814Z,10.30
2019-05-19T15:54:35.632Z,10.20
2019-05-19T15:57:42.492Z,10.33
2019-05-19T16:00:47.678Z,9.87
2019-05-19T16:03:53.294Z,8.73
2019-05-19T16:06:58.675Z,10.37
2019-05-19T16:10:03.824Z,9.83
2019-05-19T16:13:11.503Z,9.53
2019-05-19T16:16:16.826Z,10.33
2019-05-19T16:19:21.844Z,9.20
2019-05-19T16:22:26.925Z,10.10
2019-05-19T16:25:32.101Z,9.37
2019-05-19T16:28:55.821Z,8.00
2019-05-19T16:32:01.190Z,8.40
2019-05-19T16:35:07.052Z,7.30
2019-05-19T16:38:12.286Z,8.10
2019-05-19T16:41:17.397Z,8.40
2019-05-19T16:44:22.428Z,9.37
2019-05-19T16:47:27.789Z,9.20
2019-05-19T16:50:32.986Z,9.17
2019-05-19T16:53:38.110Z,9.53
2019-05-19T16:56:43.227Z,10.10
2019-05-19T16:59:48.441Z,8.80
2019-05-19T17:02:53.656Z,9.27
2019-05-19T17:05:58.945Z,9.47
2019-05-19T17:09:04.438Z,10.43
2019-05-19T17:12:09.471Z,10.53
2019-05-19T17:15:14.431Z,10.40
2019-05-19T17:18:19.750Z,10.77
2019-05-19T17:21:25.962Z,13.07
2019-05-19T17:24:30.910Z,10.70
2019-05-19T17:27:35.996Z,10.13
2019-05-19T17:30:40.920Z,12.47
2019-05-19T17:33:45.861Z,12.40
2019-05-19T17:36:50.754Z,12.33
2019-05-19T17:39:55.862Z,11.03
2019-05-19T17:43:01.031Z,12.20
2019-05-19T17:46:06.024Z,12.17
2019-05-19T17:49:10.895Z,10.50
2019-05-19T17:52:16.098Z,12.87
2019-05-19T17:55:21.197Z,13.80
2019-05-19T17:58:27.004Z,14.17
2019-05-19T18:01:32.107Z,11.97
2019-05-19T18:04:37.356Z,12.13
2019-05-19T18:07:42.461Z,12.80
2019-05-19T18:10:47.605Z,12.67
2019-05-19T18:13:52.824Z,13.73
2019-05-19T18:16:58.085Z,14.27
2019-05-19T18:20:03.577Z,13.40
2019-05-19T18:23:08.621Z,13.00
2019-05-19T18:26:13.755Z,14.07
2019-05-19T18:29:30.445Z,15.30
2019-05-19T18:32:25.880Z,14.03
2019-05-19T18:35:31.543Z,14.83
2019-05-19T18:38:39.516Z,15.30
2019-05-19T18:41:44.692Z,14.20
2019-05-19T18:44:49.907Z,16.03
2019-05-19T18:47:55.190Z,16.03
2019-05-19T18:51:00.658Z,16.20
2019-05-19T18:54:05.971Z,16.70
2019-05-19T18:57:11.021Z,16.80
2019-05-19T19:00:25.581Z,20.27
2019-05-19T19:03:34.688Z,19.10
2019-05-19T19:06:39.777Z,19.00
2019-05-19T19:09:44.884Z,19.40
2019-05-19T19:12:50.253Z,16.57
2019-05-19T19:15:56.797Z,16.40
2019-05-19T19:19:01.773Z,15.83
2019-05-19T19:22:06.995Z,14.83
2019-05-19T19:25:12.015Z,14.30
2019-05-19T19:28:17.163Z,13.87
2019-05-19T19:31:22.293Z,12.30
2019-05-19T19:34:27.613Z,14.40
2019-05-19T19:37:32.538Z,17.33
2019-05-19T19:40:37.583Z,12.87
2019-05-19T19:43:42.819Z,13.30
2019-05-19T19:46:48.797Z,17.37
2019-05-19T19:49:54.251Z,27.80
2019-05-19T19:52:59.319Z,14.87
2019-05-19T19:56:04.665Z,13.80
2019-05-19T19:59:09.781Z,15.20
2019-05-19T20:02:16.086Z,16.83
2019-05-19T20:05:21.190Z,15.90
2019-05-19T20:08:26.413Z,15.00
2019-05-19T20:11:31.777Z,14.70
2019-05-19T20:14:38.576Z,16.90
2019-05-19T20:17:43.490Z,18.17
2019-05-19T20:20:48.674Z,19.67
2019-05-19T20:23:53.755Z,15.50
2019-05-19T20:26:59.014Z,16.27
2019-05-19T20:30:04.321Z,16.10
2019-05-19T20:33:09.440Z,17.60
2019-05-19T20:36:14.597Z,17.10
2019-05-19T20:39:19.567Z,18.37
2019-05-19T20:42:26.736Z,18.60
2019-05-19T20:45:31.776Z,17.10
2019-05-19T20:48:36.995Z,17.07
2019-05-19T20:51:42.013Z,16.80
2019-05-19T20:54:47.513Z,16.10
2019-05-19T20:57:52.776Z,16.77
2019-05-19T21:00:57.979Z,15.30
2019-05-19T21:04:03.042Z,16.93
2019-05-19T21:07:08.038Z,15.30
2019-05-19T21:10:13.352Z,15.80
2019-05-19T21:13:18.584Z,15.70
2019-05-19T21:16:23.734Z,16.13
2019-05-19T21:19:28.801Z,17.77
2019-05-19T21:22:33.849Z,17.00
2019-05-19T21:25:39.132Z,16.10
2019-05-19T21:28:44.016Z,16.53
2019-05-19T21:31:48.955Z,18.53
2019-05-19T21:34:53.893Z,17.43
2019-05-19T21:37:58.894Z,18.03
2019-05-19T21:41:03.966Z,16.60
2019-05-19T21:44:09.177Z,15.60
2019-05-19T21:47:14.191Z,16.63
2019-05-19T21:50:19.637Z,16.30
2019-05-19T21:53:24.660Z,15.50
2019-05-19T21:56:29.812Z,14.77
2019-05-19T21:59:34.891Z,15.30
2019-05-19T22:02:39.924Z,14.70
2019-05-19T22:05:52.861Z,14.83
2019-05-19T22:08:51.702Z,14.80
2019-05-19T22:11:56.785Z,14.70
2019-05-19T22:15:01.907Z,13.90
2019-05-19T22:18:06.793Z,13.60
2019-05-19T22:21:11.891Z,13.93
2019-05-19T22:24:17.132Z,14.23
2019-05-19T22:27:22.199Z,13.40
2019-05-19T22:30:28.810Z,15.13
2019-05-19T22:33:34.048Z,15.70
2019-05-19T22:36:39.128Z,15.70
2019-05-19T22:39:44.105Z,15.47
2019-05-19T22:42:49.010Z,14.77
2019-05-19T22:45:54.108Z,14.50
2019-05-19T22:48:59.197Z,15.17
2019-05-19T22:52:04.176Z,15.70
2019-05-19T22:55:09.860Z,14.07
2019-05-19T22:58:14.871Z,14.63
2019-05-19T23:01:19.723Z,15.23
2019-05-19T23:04:24.739Z,13.60
2019-05-19T23:07:29.818Z,14.07
2019-05-19T23:10:34.817Z,13.30
2019-05-19T23:13:39.885Z,14.87
2019-05-19T23:16:44.862Z,12.40
2019-05-19T23:19:49.969Z,12.80
2019-05-19T23:22:54.962Z,12.67
2019-05-19T23:26:00.049Z,12.47
2019-05-19T23:29:05.031Z,13.80
2019-05-19T23:32:10.177Z,12.63
2019-05-19T23:35:15.240Z,12.33
2019-05-19T23:38:20.245Z,13.23
2019-05-19T23:41:25.320Z,14.60
2019-05-19T23:44:30.312Z,15.13
2019-05-19T23:47:35.472Z,13.70
2019-05-19T23:50:40.285Z,15.27
2019-05-19T23:53:45.325Z,14.50
2019-05-19T23:56:50.553Z,15.57
2019-05-19T23:59:55.640Z,15.17
